Time;durP1;ratioP1;P1;durP2;ratioP2;P2;SDS_P1;SDS_P2;PMS_P1;PMS_P2;Temp;Humidity;BMP_temperature;BMP_pressure;BME280_temperature;BME280_humidity;BME280_pressure;Samples;Min_cycle;Max_cycle;Signal;HPM_P1;HPM_P2
2023/08/11 00:00:08;;;;;;;13.40;9.80;;;15.50;99.90;;;;;;4989142;28;20050;-81
2023/08/11 00:02:36;;;;;;;13.15;10.38;;;15.60;99.90;;;;;;4979878;28;20049;-81
2023/08/11 00:05:03;;;;;;;13.40;9.90;;;15.60;99.90;;;;;;4991524;28;20068;-81
2023/08/11 00:07:28;;;;;;;13.48;10.60;;;15.50;99.90;;;;;;5008659;28;20117;-80
2023/08/11 00:09:55;;;;;;;12.98;10.07;;;15.50;99.90;;;;;;4986078;28;20434;-80
2023/08/11 00:12:20;;;;;;;13.98;10.80;;;15.50;99.90;;;;;;4994980;28;20122;-81
2023/08/11 00:14:46;;;;;;;16.23;10.90;;;15.50;99.90;;;;;;4994821;28;20078;-80
2023/08/11 00:17:12;;;;;;;14.48;11.82;;;15.70;99.90;;;;;;4980741;28;20529;-81
2023/08/11 00:19:37;;;;;;;15.40;11.65;;;15.60;99.90;;;;;;4985312;28;20520;-81
2023/08/11 00:22:03;;;;;;;16.88;12.13;;;15.50;99.90;;;;;;4990843;28;20045;-81
2023/08/11 00:24:29;;;;;;;14.95;12.18;;;15.50;99.90;;;;;;4985531;28;20122;-81
2023/08/11 00:26:55;;;;;;;15.60;12.38;;;15.50;99.90;;;;;;4983857;28;20042;-81
2023/08/11 00:29:21;;;;;;;16.70;12.52;;;15.50;99.90;;;;;;4986950;28;20128;-81
2023/08/11 00:31:47;;;;;;;19.73;13.40;;;15.50;99.90;;;;;;4991794;28;20084;-81
2023/08/11 00:34:13;;;;;;;16.00;12.88;;;15.50;99.90;;;;;;5011839;28;20042;-80
2023/08/11 00:36:39;;;;;;;18.40;15.00;;;15.50;99.90;;;;;;4985430;28;20057;-81
2023/08/11 00:39:05;;;;;;;23.50;15.90;;;15.50;99.90;;;;;;4979521;28;20518;-80
2023/08/11 00:41:30;;;;;;;22.85;16.00;;;15.50;99.90;;;;;;4978638;28;20050;-81
2023/08/11 00:43:56;;;;;;;22.05;16.35;;;15.50;99.90;;;;;;4982458;28;20128;-80
2023/08/11 00:46:23;;;;;;;19.35;16.27;;;15.50;99.90;;;;;;4990441;28;20038;-80
2023/08/11 00:48:51;;;;;;;18.55;16.05;;;15.50;99.90;;;;;;4978927;28;20033;-81
2023/08/11 00:51:18;;;;;;;22.85;15.98;;;15.60;99.90;;;;;;4992270;28;20121;-81
2023/08/11 00:53:51;;;;;;;21.23;16.90;;;15.60;99.90;;;;;;4970272;28;20091;-81
2023/08/11 00:56:21;;;;;;;20.70;16.17;;;15.60;99.90;;;;;;4994625;28;20061;-82
2023/08/11 00:58:49;;;;;;;21.48;16.38;;;15.40;99.90;;;;;;4975900;28;20042;-81
2023/08/11 01:01:15;;;;;;;18.70;15.77;;;15.50;99.90;;;;;;4993909;28;20486;-81
2023/08/11 01:03:43;;;;;;;20.48;16.15;;;15.60;99.90;;;;;;4982998;28;20061;-81
2023/08/11 01:06:08;;;;;;;26.65;16.80;;;15.40;99.90;;;;;;4992533;28;20034;-81
2023/08/11 01:09:01;;;;;;;22.90;17.00;;;15.60;99.90;;;;;;4993777;28;20096;-81
2023/08/11 01:11:38;;;;;;;22.92;17.50;;;15.50;99.90;;;;;;4981673;28;20057;-81
2023/08/11 01:14:17;;;;;;;22.08;17.20;;;15.50;99.90;;;;;;4985048;28;20038;-81
2023/08/11 01:16:47;;;;;;;20.27;17.55;;;15.50;99.90;;;;;;5010024;28;20563;-81
2023/08/11 01:19:20;;;;;;;21.92;17.70;;;15.50;99.90;;;;;;4997792;28;20077;-81
2023/08/11 01:21:48;;;;;;;21.40;16.85;;;15.50;99.90;;;;;;4986435;28;20077;-81
2023/08/11 01:24:15;;;;;;;22.90;17.17;;;15.50;99.90;;;;;;4999555;28;20052;-81
2023/08/11 01:26:41;;;;;;;20.45;17.60;;;15.50;99.90;;;;;;4974923;28;20065;-81
2023/08/11 01:29:06;;;;;;;22.92;16.90;;;15.50;99.90;;;;;;4981675;28;20407;-80
2023/08/11 01:31:32;;;;;;;22.42;16.52;;;15.50;99.90;;;;;;4978164;28;20111;-81
2023/08/11 01:33:58;;;;;;;20.23;16.63;;;15.50;99.90;;;;;;4995158;28;20066;-80
2023/08/11 01:36:23;;;;;;;23.05;16.77;;;15.50;99.90;;;;;;4980487;28;20042;-81
2023/08/11 01:38:49;;;;;;;23.48;18.42;;;15.50;99.90;;;;;;4994834;28;20042;-81
2023/08/11 01:41:15;;;;;;;21.65;17.25;;;15.60;99.90;;;;;;5011917;28;20096;-81
2023/08/11 01:43:42;;;;;;;19.50;17.27;;;15.50;99.90;;;;;;4994748;28;20078;-81
2023/08/11 01:46:09;;;;;;;22.98;18.17;;;15.50;99.90;;;;;;4995917;28;20080;-82
2023/08/11 01:48:36;;;;;;;23.50;17.17;;;15.50;99.90;;;;;;4995413;28;20084;-81
2023/08/11 01:51:02;;;;;;;20.48;17.88;;;15.50;99.90;;;;;;4986086;28;20046;-82
2023/08/11 01:53:28;;;;;;;21.42;17.13;;;15.50;99.90;;;;;;4985324;28;20046;-81
2023/08/11 01:55:54;;;;;;;20.35;17.50;;;15.50;99.90;;;;;;4990151;28;20497;-81
2023/08/11 01:58:20;;;;;;;20.30;17.23;;;15.50;99.90;;;;;;4990413;28;20046;-81
2023/08/11 02:00:46;;;;;;;21.02;17.33;;;15.70;99.90;;;;;;4986748;28;20057;-81
2023/08/11 02:03:12;;;;;;;23.45;17.88;;;15.50;99.90;;;;;;4983499;28;20066;-81
2023/08/11 02:05:38;;;;;;;19.20;16.88;;;15.50;99.90;;;;;;4980800;28;20046;-81
2023/08/11 02:08:05;;;;;;;18.30;15.98;;;15.50;99.90;;;;;;4992468;28;20045;-81
2023/08/11 02:10:31;;;;;;;20.50;16.48;;;15.50;99.90;;;;;;5000883;28;20050;-82
2023/08/11 02:12:56;;;;;;;20.50;16.15;;;15.50;99.90;;;;;;4982414;28;20034;-81
2023/08/11 02:15:23;;;;;;;19.77;15.73;;;15.50;99.90;;;;;;4993088;28;20181;-81
2023/08/11 02:17:48;;;;;;;18.67;14.52;;;15.50;99.90;;;;;;4978624;28;20537;-81
2023/08/11 02:22:45;;;;;;;18.35;15.98;;;15.50;99.90;;;;;;4981293;28;20047;-81
2023/08/11 02:25:11;;;;;;;19.95;15.20;;;15.50;99.90;;;;;;4982653;28;20536;-81
2023/08/11 02:27:37;;;;;;;17.55;14.77;;;15.40;99.90;;;;;;4986631;28;20097;-81
2023/08/11 02:30:06;;;;;;;18.38;14.80;;;15.50;99.90;;;;;;4988226;28;20037;-81
2023/08/11 02:32:32;;;;;;;21.67;14.23;;;15.40;99.90;;;;;;4997202;28;20073;-81
2023/08/11 02:34:58;;;;;;;21.15;14.70;;;15.40;99.90;;;;;;4998468;28;20077;-81
2023/08/11 02:37:23;;;;;;;20.70;15.27;;;15.50;99.90;;;;;;4984864;28;20046;-82
2023/08/11 02:39:49;;;;;;;16.60;13.50;;;15.60;99.90;;;;;;4973153;28;20049;-81
2023/08/11 02:42:14;;;;;;;20.27;15.00;;;15.50;99.90;;;;;;4993177;28;20046;-81
2023/08/11 02:44:40;;;;;;;17.50;14.07;;;15.50;99.90;;;;;;4991197;28;20064;-81
2023/08/11 02:47:06;;;;;;;18.55;14.30;;;15.50;99.90;;;;;;4995499;28;20670;-81
2023/08/11 02:49:32;;;;;;;17.63;13.43;;;15.50;99.90;;;;;;5009871;28;20521;-80
2023/08/11 02:51:58;;;;;;;15.73;13.50;;;15.50;99.90;;;;;;4983802;28;20041;-81
2023/08/11 02:54:23;;;;;;;17.52;13.35;;;15.60;99.90;;;;;;5017527;28;20042;-81
2023/08/11 02:56:49;;;;;;;15.85;13.02;;;15.50;99.90;;;;;;4993115;28;20049;-81
2023/08/11 02:59:14;;;;;;;17.95;12.82;;;15.40;99.90;;;;;;4994725;28;20074;-82
2023/08/11 03:01:40;;;;;;;18.70;13.20;;;15.40;99.90;;;;;;5000244;28;20444;-81
2023/08/11 03:04:06;;;;;;;18.27;12.82;;;15.40;99.90;;;;;;4973593;28;20078;-81
2023/08/11 03:06:32;;;;;;;15.57;12.20;;;15.40;99.90;;;;;;5002365;28;20045;-81
2023/08/11 03:08:58;;;;;;;14.57;12.10;;;15.40;99.90;;;;;;4982488;28;20033;-80
2023/08/11 03:11:23;;;;;;;14.27;12.05;;;15.30;99.90;;;;;;5010483;28;20043;-80
2023/08/11 03:13:49;;;;;;;15.55;12.25;;;15.30;99.90;;;;;;4977651;28;20042;-80
2023/08/11 03:16:15;;;;;;;16.85;12.85;;;15.30;99.90;;;;;;4994123;28;20042;-80
2023/08/11 03:18:40;;;;;;;16.88;11.48;;;15.40;99.90;;;;;;4987538;28;20045;-81
2023/08/11 03:21:07;;;;;;;14.77;11.48;;;15.40;99.90;;;;;;4998314;28;20057;-80
2023/08/11 03:23:34;;;;;;;15.23;11.15;;;15.40;99.90;;;;;;4998946;28;20046;-80
2023/08/11 03:25:59;;;;;;;13.55;10.80;;;15.30;99.90;;;;;;5012225;28;20464;-80
2023/08/11 03:28:25;;;;;;;16.08;11.50;;;15.30;99.90;;;;;;4982860;28;20035;-80
2023/08/11 03:30:51;;;;;;;15.35;11.52;;;15.30;99.90;;;;;;5000455;28;20088;-81
2023/08/11 03:33:17;;;;;;;13.75;11.50;;;15.30;99.90;;;;;;4985715;28;20038;-80
2023/08/11 03:35:42;;;;;;;13.73;10.90;;;15.30;99.90;;;;;;4989382;28;20521;-80
2023/08/11 03:38:08;;;;;;;15.10;11.00;;;15.40;99.90;;;;;;5000604;28;20042;-81
2023/08/11 03:40:34;;;;;;;13.50;11.15;;;15.30;99.90;;;;;;4995241;28;20125;-82
2023/08/11 03:42:59;;;;;;;14.35;11.25;;;15.30;99.90;;;;;;4988222;28;20080;-82
2023/08/11 03:45:25;;;;;;;18.52;11.00;;;15.30;99.90;;;;;;4992872;28;20465;-81
2023/08/11 03:47:50;;;;;;;16.13;10.43;;;15.30;99.90;;;;;;4987949;28;20121;-81
2023/08/11 03:50:16;;;;;;;14.73;11.55;;;15.30;99.90;;;;;;4992365;28;20038;-82
2023/08/11 03:52:42;;;;;;;16.02;11.70;;;15.30;99.90;;;;;;4994957;28;20406;-82
2023/08/11 03:55:09;;;;;;;15.57;11.68;;;15.30;99.90;;;;;;4993351;28;20034;-81
2023/08/11 03:57:37;;;;;;;17.75;11.25;;;15.30;99.90;;;;;;5007307;23;20049;-77
2023/08/11 04:00:14;;;;;;;17.10;12.00;;;15.20;99.90;;;;;;5015991;28;20033;-77
2023/08/11 04:02:46;;;;;;;15.40;11.40;;;15.30;99.90;;;;;;4996987;28;20049;-77
2023/08/11 04:05:12;;;;;;;19.35;11.43;;;15.30;99.90;;;;;;5021521;28;20033;-77
2023/08/11 04:08:00;;;;;;;12.88;11.07;;;15.30;99.90;;;;;;5007666;28;20061;-77
2023/08/11 04:10:27;;;;;;;15.93;10.57;;;15.70;99.90;;;;;;4991174;28;20100;-77
2023/08/11 04:12:53;;;;;;;17.10;11.75;;;15.30;99.90;;;;;;4987795;28;20069;-77
2023/08/11 04:15:21;;;;;;;15.93;11.45;;;15.30;99.90;;;;;;5003427;28;20037;-77
2023/08/11 04:17:49;;;;;;;14.98;10.80;;;15.30;99.90;;;;;;4980117;28;20078;-77
2023/08/11 04:20:15;;;;;;;16.88;12.02;;;15.30;99.90;;;;;;4992321;28;20072;-77
2023/08/11 04:22:41;;;;;;;14.45;11.43;;;15.30;99.90;;;;;;4987535;28;20042;-77
2023/08/11 04:25:09;;;;;;;13.73;10.05;;;15.30;99.90;;;;;;4994385;28;20034;-77
2023/08/11 04:27:40;;;;;;;14.90;11.23;;;15.40;99.90;;;;;;4977456;28;20069;-77
2023/08/11 04:30:07;;;;;;;12.80;10.45;;;15.30;99.90;;;;;;4992467;28;20069;-77
2023/08/11 04:32:34;;;;;;;13.73;10.20;;;15.40;99.90;;;;;;4977157;28;20116;-77
2023/08/11 04:35:00;;;;;;;13.10;10.80;;;15.40;99.90;;;;;;4994391;28;20113;-77
2023/08/11 04:37:26;;;;;;;14.38;11.05;;;15.40;99.90;;;;;;5023614;28;20040;-77
2023/08/11 04:39:51;;;;;;;14.48;11.13;;;15.40;99.90;;;;;;4985978;28;20038;-77
2023/08/11 04:42:27;;;;;;;12.10;10.63;;;15.40;99.90;;;;;;4985845;28;20075;-77
2023/08/11 04:44:53;;;;;;;12.63;10.45;;;15.40;99.90;;;;;;5004898;28;20045;-77
2023/08/11 04:47:25;;;;;;;16.05;10.82;;;15.40;99.90;;;;;;5005104;28;20141;-77
2023/08/11 04:49:51;;;;;;;13.68;10.52;;;15.40;99.90;;;;;;4988327;28;20460;-77
2023/08/11 04:52:17;;;;;;;14.88;10.73;;;15.40;99.90;;;;;;4986486;28;20041;-77
2023/08/11 04:54:43;;;;;;;14.25;10.57;;;15.40;99.90;;;;;;4978370;28;20041;-77
2023/08/11 04:57:09;;;;;;;15.57;10.38;;;15.40;99.90;;;;;;5003050;28;20046;-77
2023/08/11 04:59:37;;;;;;;15.32;10.57;;;15.40;99.90;;;;;;4995673;28;20085;-77
2023/08/11 05:02:04;;;;;;;12.82;10.80;;;15.40;99.90;;;;;;5000989;28;20120;-77
2023/08/11 05:04:31;;;;;;;14.07;10.68;;;15.40;99.90;;;;;;4990171;28;20104;-77
2023/08/11 05:06:58;;;;;;;14.02;10.57;;;15.40;99.90;;;;;;5008028;28;20401;-77
2023/08/11 05:09:24;;;;;;;15.93;10.32;;;15.50;99.90;;;;;;5009000;28;20040;-77
2023/08/11 05:11:50;;;;;;;16.30;10.13;;;15.50;99.90;;;;;;5001456;28;20046;-77
2023/08/11 05:14:17;;;;;;;15.32;10.38;;;15.50;99.90;;;;;;4995582;28;20101;-77
2023/08/11 05:16:44;;;;;;;14.05;9.93;;;15.50;99.90;;;;;;4993645;28;20045;-77
2023/08/11 05:19:12;;;;;;;13.43;9.95;;;15.50;99.90;;;;;;4981619;28;20046;-77
2023/08/11 05:21:41;;;;;;;12.35;9.95;;;15.50;99.90;;;;;;5005860;28;20080;-77
2023/08/11 05:24:07;;;;;;;13.82;9.82;;;15.60;99.90;;;;;;4977842;28;20037;-77
2023/08/11 05:26:33;;;;;;;15.90;10.40;;;15.60;99.90;;;;;;5025175;28;20046;-77
2023/08/11 05:29:05;;;;;;;16.08;11.00;;;15.60;99.90;;;;;;5004084;28;20515;-77
2023/08/11 05:31:33;;;;;;;12.20;9.80;;;15.70;99.90;;;;;;4987941;28;20126;-77
2023/08/11 05:33:59;;;;;;;18.05;10.32;;;15.70;99.90;;;;;;5017709;28;20547;-77
2023/08/11 05:36:24;;;;;;;15.57;10.23;;;15.60;99.90;;;;;;4978832;28;20046;-77
2023/08/11 05:38:50;;;;;;;13.32;9.55;;;15.70;99.90;;;;;;4987786;28;20127;-77
2023/08/11 05:41:19;;;;;;;13.88;9.63;;;15.70;99.90;;;;;;4982717;28;20120;-77
2023/08/11 05:43:48;;;;;;;12.80;9.63;;;15.70;99.90;;;;;;4990732;28;20062;-77
2023/08/11 05:46:14;;;;;;;16.95;10.32;;;15.70;99.90;;;;;;5013487;28;20170;-77
2023/08/11 05:48:42;;;;;;;14.60;10.43;;;16.20;99.90;;;;;;5005107;28;20073;-77
2023/08/11 05:51:08;;;;;;;13.18;10.45;;;15.80;99.90;;;;;;4990547;28;20074;-77
2023/08/11 05:53:34;;;;;;;14.55;10.30;;;15.70;99.90;;;;;;4979920;28;20531;-78
2023/08/11 05:56:01;;;;;;;14.75;10.93;;;15.80;99.90;;;;;;4999693;28;20117;-77
2023/08/11 05:58:27;;;;;;;15.98;10.32;;;15.80;99.90;;;;;;4997616;28;20045;-77
2023/08/11 06:00:52;;;;;;;16.67;11.07;;;15.80;99.90;;;;;;4985150;28;20072;-77
2023/08/11 06:03:18;;;;;;;13.30;10.18;;;15.90;99.90;;;;;;5004833;28;20513;-76
2023/08/11 06:05:44;;;;;;;15.20;11.68;;;15.90;99.90;;;;;;5012394;28;20073;-77
2023/08/11 06:08:10;;;;;;;17.80;10.73;;;15.90;99.90;;;;;;5012394;28;20108;-76
2023/08/11 06:10:35;;;;;;;15.80;10.32;;;15.90;99.90;;;;;;5009867;28;20038;-77
2023/08/11 06:13:01;;;;;;;15.38;11.07;;;15.90;99.90;;;;;;4999060;28;20485;-77
2023/08/11 06:15:27;;;;;;;16.10;11.07;;;16.00;99.90;;;;;;5007198;28;20044;-77
2023/08/11 06:17:54;;;;;;;16.88;11.43;;;16.00;99.90;;;;;;5001108;28;20030;-78
2023/08/11 06:20:21;;;;;;;15.48;10.90;;;16.30;99.90;;;;;;4992655;28;20037;-77
2023/08/11 06:23:01;;;;;;;15.13;10.70;;;16.10;99.90;;;;;;4990953;28;20073;-77
2023/08/11 06:25:27;;;;;;;15.70;10.98;;;16.10;99.90;;;;;;4981011;28;20040;-78
2023/08/11 06:28:20;;;;;;;15.85;11.02;;;16.20;99.90;;;;;;4982691;28;20089;-77
2023/08/11 06:31:33;;;;;;;14.45;11.30;;;16.20;99.90;;;;;;5006131;28;20095;-78
2023/08/11 06:34:29;;;;;;;15.20;10.48;;;16.30;99.90;;;;;;4998204;28;20034;-80
2023/08/11 06:37:35;;;;;;;14.40;10.32;;;16.30;99.90;;;;;;4943814;28;20072;-79
2023/08/11 06:40:09;;;;;;;15.00;10.55;;;16.40;99.90;;;;;;4991498;28;20045;-80
2023/08/11 06:42:48;;;;;;;13.88;10.73;;;16.40;99.90;;;;;;5021238;28;20047;-77
2023/08/11 06:48:19;;;;;;;17.30;9.80;;;16.60;99.90;;;;;;5022295;28;20107;-78
2023/08/11 06:50:49;;;;;;;12.75;10.10;;;16.70;99.90;;;;;;4981475;28;20042;-77
2023/08/11 06:53:16;;;;;;;13.18;10.45;;;16.80;99.90;;;;;;5002153;28;20517;-77
2023/08/11 06:55:45;;;;;;;12.02;10.10;;;16.80;99.90;;;;;;4988803;28;20092;-77
2023/08/11 06:58:19;;;;;;;14.75;9.27;;;16.80;99.90;;;;;;4999557;28;20049;-78
2023/08/11 07:00:50;;;;;;;13.63;9.80;;;17.00;99.90;;;;;;5008511;28;20073;-77
2023/08/11 07:03:18;;;;;;;14.82;9.65;;;16.80;99.90;;;;;;4993688;28;20045;-77
2023/08/11 07:05:45;;;;;;;12.00;9.65;;;17.10;99.90;;;;;;4996005;28;20552;-77
2023/08/11 07:08:18;;;;;;;14.27;9.15;;;17.10;99.90;;;;;;5000768;28;20057;-78
2023/08/11 07:11:25;;;;;;;15.13;8.65;;;17.20;99.90;;;;;;5023977;28;20069;-77
2023/08/11 07:14:05;;;;;;;10.30;8.32;;;17.20;99.90;;;;;;5006115;28;20030;-78
2023/08/11 07:16:32;;;;;;;10.75;8.40;;;17.30;99.90;;;;;;4988989;28;20034;-78
2023/08/11 07:19:18;;;;;;;12.23;7.85;;;17.40;99.90;;;;;;5005056;28;20084;-78
2023/08/11 07:22:37;;;;;;;11.65;8.15;;;17.50;99.90;;;;;;5006185;28;20042;-79
2023/08/11 07:25:30;;;;;;;12.30;8.37;;;17.60;99.90;;;;;;4997817;28;20449;-78
2023/08/11 07:28:22;;;;;;;11.20;7.93;;;17.70;99.90;;;;;;5019666;28;20544;-78
2023/08/11 07:30:58;;;;;;;11.95;8.20;;;17.80;99.90;;;;;;4991227;28;20042;-78
2023/08/11 07:33:29;;;;;;;18.40;7.90;;;17.90;99.90;;;;;;5024326;28;20046;-78
2023/08/11 07:35:58;;;;;;;13.48;8.23;;;18.00;99.90;;;;;;4988785;28;20045;-77
2023/08/11 07:38:26;;;;;;;13.02;7.72;;;18.00;99.90;;;;;;4985106;28;20042;-77
2023/08/11 07:40:54;;;;;;;14.00;7.72;;;18.10;99.90;;;;;;4979003;28;20041;-78
2023/08/11 07:43:23;;;;;;;11.20;7.57;;;18.20;99.90;;;;;;5012135;28;20552;-78
2023/08/11 07:45:49;;;;;;;10.90;7.38;;;18.30;99.90;;;;;;5001785;28;20057;-78
2023/08/11 07:48:15;;;;;;;13.23;8.07;;;18.30;99.90;;;;;;5001780;28;20061;-77
2023/08/11 07:50:43;;;;;;;9.07;7.05;;;18.40;99.90;;;;;;5005620;28;20121;-77
2023/08/11 07:53:08;;;;;;;10.13;7.72;;;18.50;99.90;;;;;;4980280;28;20397;-77
2023/08/11 07:55:34;;;;;;;11.57;7.32;;;18.50;99.90;;;;;;5013612;28;20096;-77
2023/08/11 07:58:00;;;;;;;10.88;7.32;;;18.50;99.90;;;;;;4992442;28;20038;-77
2023/08/11 08:00:25;;;;;;;11.13;7.57;;;18.60;99.90;;;;;;5015129;28;20033;-78
2023/08/11 08:02:53;;;;;;;11.43;6.97;;;18.70;99.90;;;;;;4992879;28;20037;-77
2023/08/11 08:05:20;;;;;;;10.60;6.75;;;18.70;99.90;;;;;;4979686;28;20038;-78
2023/08/11 08:07:46;;;;;;;11.35;6.60;;;19.00;99.90;;;;;;4997845;28;20034;-78
2023/08/11 08:10:14;;;;;;;10.60;7.00;;;18.80;99.90;;;;;;5013510;28;20045;-78
2023/08/11 08:12:42;;;;;;;8.73;6.70;;;18.90;99.90;;;;;;5016506;28;20109;-79
2023/08/11 08:15:09;;;;;;;11.00;6.72;;;18.90;99.90;;;;;;4998281;28;20037;-81
2023/08/11 08:17:35;;;;;;;13.15;6.63;;;19.00;99.90;;;;;;4996669;28;20087;-78
2023/08/11 08:20:05;;;;;;;9.60;6.45;;;19.10;99.90;;;;;;4995763;28;20508;-78
2023/08/11 08:22:32;;;;;;;8.68;6.05;;;19.20;99.90;;;;;;4974224;28;20546;-78
2023/08/11 08:24:58;;;;;;;9.50;6.22;;;19.20;99.90;;;;;;4987535;28;20486;-78
2023/08/11 08:27:45;;;;;;;10.73;6.15;;;19.30;99.90;;;;;;4997200;28;20056;-78
2023/08/11 08:30:12;;;;;;;12.75;6.32;;;19.40;99.90;;;;;;5006815;28;20411;-78
2023/08/11 08:32:39;;;;;;;12.60;5.30;;;19.60;99.90;;;;;;5003861;28;20117;-79
2023/08/11 08:35:10;;;;;;;10.27;5.60;;;19.80;99.90;;;;;;4999362;28;20060;-79
2023/08/11 08:37:38;;;;;;;7.97;5.20;;;20.00;99.90;;;;;;4999980;28;20128;-78
2023/08/11 08:40:07;;;;;;;11.50;5.30;;;20.30;99.90;;;;;;4994085;28;20049;-79
2023/08/11 08:42:33;;;;;;;8.45;5.00;;;20.50;99.90;;;;;;4980094;28;20513;-78
2023/08/11 08:44:59;;;;;;;9.45;4.63;;;20.70;99.90;;;;;;4979382;28;20045;-78
2023/08/11 08:47:26;;;;;;;7.97;4.80;;;21.00;99.90;;;;;;4992017;28;20405;-78
2023/08/11 08:49:53;;;;;;;8.88;4.80;;;21.20;99.90;;;;;;4994176;28;20038;-78
2023/08/11 08:52:20;;;;;;;8.13;4.85;;;21.50;99.90;;;;;;4978550;28;20038;-78
2023/08/11 08:54:46;;;;;;;9.98;5.35;;;21.70;99.90;;;;;;4984912;28;20037;-79
2023/08/11 08:57:12;;;;;;;13.10;6.57;;;22.00;99.90;;;;;;4999450;28;20068;-79
2023/08/11 08:59:42;;;;;;;8.13;6.15;;;22.10;99.90;;;;;;4996383;28;20084;-79
2023/08/11 09:02:10;;;;;;;7.47;4.22;;;22.30;99.90;;;;;;5014293;28;20038;-79
2023/08/11 09:04:36;;;;;;;8.18;4.53;;;22.50;99.90;;;;;;4981427;28;20482;-79
2023/08/11 09:07:02;;;;;;;;;;;22.70;99.90;;;;;;5014018;28;20048;-79
2023/08/11 09:09:29;;;;;;;;;;;22.80;99.90;;;;;;4985078;28;19987;-79
2023/08/11 09:11:55;;;;;;;6.80;4.63;;;23.10;99.90;;;;;;5008411;28;19924;-79
2023/08/11 09:14:22;;;;;;;9.98;5.00;;;23.30;99.90;;;;;;5007556;28;20030;-79
2023/08/11 09:16:51;;;;;;;10.50;4.55;;;23.40;99.90;;;;;;5015746;28;20051;-79
2023/08/11 09:19:17;;;;;;;7.97;4.53;;;23.60;99.90;;;;;;4980883;28;20414;-78
2023/08/11 09:21:43;;;;;;;8.80;5.35;;;23.70;99.90;;;;;;5004467;28;20061;-79
2023/08/11 09:24:10;;;;;;;;;;;23.90;99.90;;;;;;4980233;28;20046;-79
2023/08/11 09:26:36;;;;;;;;;;;24.10;99.90;;;;;;4974162;28;19921;-79
2023/08/11 09:29:04;;;;;;;13.40;9.88;;;25.10;99.90;;;;;;5011797;28;19940;-79
2023/08/11 09:31:30;;;;;;;12.68;5.50;;;25.70;99.90;;;;;;5011468;28;20386;-78
2023/08/11 09:33:56;;;;;;;8.27;4.55;;;25.60;99.90;;;;;;4975665;28;20041;-78
2023/08/11 09:36:23;;;;;;;27.33;6.28;;;25.50;99.90;;;;;;4995695;28;20037;-78
2023/08/11 09:38:53;;;;;;;11.02;4.63;;;25.40;99.90;;;;;;4991337;28;20546;-78
2023/08/11 09:41:19;;;;;;;7.38;4.07;;;25.30;99.90;;;;;;5003456;28;20046;-78
2023/08/11 09:43:48;;;;;;;7.70;3.92;;;25.40;99.90;;;;;;5008190;28;20099;-78
2023/08/11 09:46:14;;;;;;;7.40;4.45;;;25.40;99.90;;;;;;5002890;28;20038;-79
2023/08/11 09:48:40;;;;;;;7.10;4.30;;;25.50;99.90;;;;;;5011141;28;20123;-79
2023/08/11 09:51:10;;;;;;;5.88;4.25;;;25.60;99.90;;;;;;4981988;28;20357;-78
2023/08/11 09:53:40;;;;;;;6.35;3.75;;;25.70;99.90;;;;;;4996978;28;20124;-78
2023/08/11 09:56:12;;;;;;;7.88;3.92;;;25.70;99.90;;;;;;4990497;28;20124;-79
2023/08/11 09:58:39;;;;;;;9.32;3.78;;;25.80;99.50;;;;;;5010272;22;20049;-65
2023/08/11 10:01:09;;;;;;;8.63;3.80;;;25.80;99.90;;;;;;4991860;28;20046;-66
2023/08/11 10:03:41;;;;;;;5.57;3.47;;;25.90;99.90;;;;;;4999437;28;20120;-66
2023/08/11 10:06:09;;;;;;;6.80;3.60;;;26.00;99.60;;;;;;5012625;28;20530;-65
2023/08/11 10:08:35;;;;;;;;;;;26.20;99.90;;;;;;5013155;28;20042;-66
2023/08/11 10:11:02;;;;;;;8.70;3.97;;;26.30;99.40;;;;;;4982801;28;19917;-67
2023/08/11 10:13:28;;;;;;;6.65;3.60;;;26.50;99.70;;;;;;5011601;28;20033;-67
2023/08/11 10:15:55;;;;;;;9.52;4.00;;;26.60;99.20;;;;;;5012860;28;20045;-64
2023/08/11 10:18:21;;;;;;;5.00;3.42;;;26.60;99.20;;;;;;5006609;28;20056;-67
2023/08/11 10:20:56;;;;;;;9.95;4.00;;;26.70;99.60;;;;;;5011750;28;20038;-63
2023/08/11 10:23:23;;;;;;;6.40;4.10;;;26.80;98.80;;;;;;5013764;28;20038;-65
2023/08/11 10:25:49;;;;;;;6.13;3.75;;;26.90;98.60;;;;;;5017856;28;20092;-63
2023/08/11 10:28:16;;;;;;;7.70;3.60;;;27.00;98.10;;;;;;5016600;28;20072;-64
2023/08/11 10:30:42;;;;;;;6.85;3.70;;;27.00;96.90;;;;;;5023332;28;20034;-64
2023/08/11 10:33:09;;;;;;;9.45;4.00;;;27.00;97.00;;;;;;5011993;28;20396;-65
2023/08/11 10:35:47;;;;;;;6.28;3.53;;;27.20;96.10;;;;;;5011321;28;20038;-64
2023/08/11 10:38:30;;;;;;;5.70;3.60;;;27.10;96.30;;;;;;5011155;28;20036;-62
2023/08/11 10:41:07;;;;;;;6.57;3.35;;;27.10;96.30;;;;;;5012515;28;20069;-65
2023/08/11 10:43:40;;;;;;;6.63;3.35;;;27.20;96.30;;;;;;5008344;28;20038;-64
2023/08/11 10:46:29;;;;;;;6.60;3.63;;;27.30;96.40;;;;;;5010146;28;20030;-64
2023/08/11 10:48:58;;;;;;;5.88;3.22;;;27.40;95.40;;;;;;5012008;28;20041;-65
2023/08/11 10:51:31;;;;;;;4.72;3.25;;;27.50;96.10;;;;;;5011428;28;20030;-60
2023/08/11 10:54:01;;;;;;;7.22;3.58;;;27.50;95.00;;;;;;4995031;28;20439;-65
2023/08/11 10:56:29;;;;;;;7.75;3.47;;;27.60;95.70;;;;;;5012435;28;20105;-65
2023/08/11 10:59:05;;;;;;;4.90;3.40;;;27.70;96.10;;;;;;5013384;28;20069;-64
2023/08/11 11:01:35;;;;;;;5.70;3.72;;;27.90;95.00;;;;;;4996410;28;20077;-65
2023/08/11 11:04:02;;;;;;;6.18;3.70;;;27.90;94.80;;;;;;5021250;28;20365;-65
2023/08/11 11:06:28;;;;;;;8.82;3.72;;;27.90;94.60;;;;;;5013903;28;20046;-63
2023/08/11 11:08:54;;;;;;;5.25;3.00;;;27.80;94.60;;;;;;5001081;28;20034;-61
2023/08/11 11:11:20;;;;;;;6.15;3.13;;;27.90;94.50;;;;;;4997539;28;20118;-62
2023/08/11 11:13:45;;;;;;;6.43;3.28;;;28.00;94.20;;;;;;5011597;28;20033;-64
2023/08/11 11:16:11;;;;;;;6.65;3.40;;;28.10;93.60;;;;;;5015545;28;20582;-62
2023/08/11 11:18:39;;;;;;;7.85;3.60;;;28.20;93.70;;;;;;5008866;28;20496;-65
2023/08/11 11:21:05;;;;;;;4.88;3.10;;;28.20;93.60;;;;;;4999667;28;20496;-64
2023/08/11 11:23:33;;;;;;;4.18;2.90;;;28.20;92.90;;;;;;5009043;28;20069;-65
2023/08/11 11:26:01;;;;;;;6.40;3.35;;;28.20;91.80;;;;;;5018187;28;20084;-64
2023/08/11 11:28:27;;;;;;;9.43;3.20;;;28.20;91.90;;;;;;5015745;28;20034;-64
2023/08/11 11:30:54;;;;;;;7.25;3.42;;;28.20;92.40;;;;;;5010367;28;20056;-64
2023/08/11 11:33:21;;;;;;;5.90;3.13;;;28.30;91.50;;;;;;5018427;28;20042;-64
2023/08/11 11:35:47;;;;;;;9.35;3.22;;;28.30;91.40;;;;;;5010570;28;20500;-64
2023/08/11 11:38:13;;;;;;;4.70;3.20;;;28.30;91.80;;;;;;5018459;28;20034;-62
2023/08/11 11:40:39;;;;;;;15.32;3.80;;;28.40;91.00;;;;;;5011527;28;20034;-62
2023/08/11 11:43:05;;;;;;;5.50;3.13;;;28.40;91.90;;;;;;5011947;28;20038;-64
2023/08/11 11:45:31;;;;;;;8.65;3.50;;;28.50;91.30;;;;;;5015972;28;20034;-62
2023/08/11 11:47:57;;;;;;;7.05;3.65;;;28.50;90.70;;;;;;5017971;28;20531;-64
2023/08/11 11:50:22;;;;;;;9.20;3.45;;;28.40;91.30;;;;;;5021789;28;20029;-64
2023/08/11 11:52:48;;;;;;;4.28;3.40;;;28.10;91.70;;;;;;5022854;28;20129;-64
2023/08/11 11:55:16;;;;;;;5.13;3.15;;;28.10;92.40;;;;;;5012919;28;20487;-64
2023/08/11 11:57:42;;;;;;;8.45;3.60;;;28.10;92.40;;;;;;4995712;28;20048;-65
2023/08/11 12:00:16;;;;;;;11.85;3.63;;;28.30;93.10;;;;;;5001279;28;20388;-65
2023/08/11 12:02:50;;;;;;;7.20;3.28;;;28.40;93.90;;;;;;5012006;28;20077;-64
2023/08/11 12:05:16;;;;;;;5.88;3.20;;;28.60;92.90;;;;;;5018775;28;20042;-64
2023/08/11 12:07:43;;;;;;;6.80;3.15;;;28.70;92.50;;;;;;4995598;28;20054;-64
2023/08/11 12:10:09;;;;;;;5.32;3.58;;;28.70;92.30;;;;;;5007901;28;20109;-64
2023/08/11 12:12:35;;;;;;;5.78;3.50;;;28.70;92.70;;;;;;5008588;28;20117;-64
2023/08/11 12:15:05;;;;;;;4.80;3.30;;;28.70;93.00;;;;;;5001393;28;20048;-64
2023/08/11 12:17:35;;;;;;;5.43;3.40;;;28.80;92.10;;;;;;5024298;28;20045;-64
2023/08/11 12:20:03;;;;;;;6.72;3.35;;;28.80;91.50;;;;;;5012668;28;20396;-64
2023/08/11 12:22:29;;;;;;;7.00;3.88;;;28.70;91.90;;;;;;5006034;28;20100;-64
2023/08/11 12:24:55;;;;;;;5.45;3.47;;;28.50;92.20;;;;;;5009773;28;20045;-64
2023/08/11 12:27:21;;;;;;;4.88;3.20;;;28.40;92.60;;;;;;5007276;28;20030;-64
2023/08/11 12:29:46;;;;;;;6.57;3.22;;;28.40;92.30;;;;;;5010586;28;20046;-64
2023/08/11 12:32:13;;;;;;;4.47;3.33;;;28.50;93.00;;;;;;5015507;28;20037;-61
2023/08/11 12:34:38;;;;;;;6.80;3.03;;;28.60;92.60;;;;;;5015329;28;20042;-62
2023/08/11 12:37:04;;;;;;;6.35;3.20;;;28.70;92.80;;;;;;5017579;28;20030;-64
2023/08/11 12:39:29;;;;;;;4.40;3.10;;;28.70;93.00;;;;;;5008612;28;20383;-64
2023/08/11 12:41:55;;;;;;;5.43;3.55;;;28.60;92.30;;;;;;5008423;28;20637;-64
2023/08/11 12:44:21;;;;;;;7.07;3.50;;;28.50;92.40;;;;;;5009556;28;20034;-64
2023/08/11 12:46:46;;;;;;;3.97;3.17;;;28.40;92.20;;;;;;5014430;28;20480;-61